Dawn Merchant — MYIL6 — position and weather

sailwx.info

Track history (hours):
 
Tides and Currents Weather Stations Pressure Air Temp Water Temp Dewpoint Dewpoint Depression Visibility Wind Speed Wind Dir Waves Ship Positions

Dawn Merchant

Operator: Norfolk Line

Last reported at 2019-Jul-16 10:01 UTC. Time now 2019-Jul-16 10:07 UTC.
Position S 41°14' E 174°21'.

Length 180 m; draft 5.8 m.

Type: Passenger vessel. MMSI: 232197000.

Date/timePositionNaut miles runAvg speedWind from/ knotsBaromVisibWave heightAir tempDewpointWater temp
2019-Jul-16 10:01S 41°14' E 174°21'1020.7
2019-Jul-16 09:30S 41°19' E 174°32'1020.4
2019-Jul-16 09:01S 41°23' E 174°45'713.9
2019-Jul-16 08:31S 41°16' E 174°49'1 2.2
2019-Jul-16 08:00S 41°16' E 174°47'0 0.0
2019-Jul-16 07:30S 41°16' E 174°47'0 0.0
2019-Jul-16 07:00S 41°16' E 174°47'0 0.0
2019-Jul-16 06:30S 41°16' E 174°47'0 0.0
2019-Jul-16 06:00S 41°16' E 174°47'1 2.7
2019-Jul-16 05:30S 41°16' E 174°49'714.4
2019-Jul-16 05:00S 41°23' E 174°48'917.8
2019-Jul-16 04:31S 41°22' E 174°37'1020.1
2019-Jul-16 04:00S 41°17' E 174°25'815.2
2019-Jul-16 03:31S 41°14' E 174°16'612.3
2019-Jul-16 03:01S 41°14' E 174°08'612.6
2019-Jul-16 02:30S 41°17' E 174°00'0 0.0
2019-Jul-16 01:59S 41°17' E 174°00'0 0.0
2019-Jul-16 01:29S 41°17' E 174°00'0 0.0
2019-Jul-16 00:59S 41°17' E 174°00'0 0.0
2019-Jul-16 00:29S 41°17' E 174°00'3 5.5
2019-Jul-16 00:00S 41°15' E 174°02'612.1
2019-Jul-15 23:31S 41°15' E 174°10'612.6
2019-Jul-15 23:01S 41°13' E 174°18'714.4
2019-Jul-15 22:31S 41°17' E 174°26'917.0
2019-Jul-15 22:00S 41°21' E 174°36'917.2
2019-Jul-15 21:31S 41°22' E 174°47'612.8
2019-Jul-15 21:01S 41°16' E 174°48'0 0.7
2019-Jul-15 20:30S 41°16' E 174°47'0 0.0
2019-Jul-15 20:00S 41°16' E 174°47'0 0.0
2019-Jul-15 19:30S 41°16' E 174°47'0 0.0
2019-Jul-15 19:00S 41°16' E 174°47'0 0.0
2019-Jul-15 18:30S 41°16' E 174°47'0 0.1
2019-Jul-15 18:00S 41°16' E 174°47'510.4
2019-Jul-15 17:30S 41°20' E 174°51'713.6
2019-Jul-15 17:00S 41°23' E 174°43'714.3
2019-Jul-15 16:30S 41°21' E 174°34'815.8
2019-Jul-15 16:01S 41°17' E 174°25'713.5
2019-Jul-15 15:30S 41°13' E 174°17'612.2
2019-Jul-15 15:01S 41°14' E 174°09'713.6
2019-Jul-15 14:30S 41°17' E 174°01'1 1.1
2019-Jul-15 14:00S 41°17' E 174°00'0 0.0
2019-Jul-15 13:30S 41°17' E 174°00'0 0.0
2019-Jul-15 13:00S 41°17' E 174°00'0 0.0
2019-Jul-15 12:30S 41°17' E 174°00'2 3.2
2019-Jul-15 12:00S 41°16' E 174°01'0 0.9
2019-Jul-15 11:30S 41°16' E 174°01'612.8
2019-Jul-15 11:00S 41°14' E 174°09'611.5
2019-Jul-15 10:30S 41°13' E 174°17'612.7
2019-Jul-15 10:00S 41°16' E 174°25'714.4
2019-Jul-15 09:31S 41°20' E 174°33'815.3
2019-Jul-15 09:01S 41°23' E 174°42'815.6
2019-Jul-15 08:30S 41°19' E 174°51'4 8.5
2019-Jul-15 08:00S 41°16' E 174°47'0 0.0
2019-Jul-15 07:24S 41°16' E 174°47'0 0.0
2019-Jul-15 07:00S 41°16' E 174°47'0 0.0
2019-Jul-15 06:30S 41°16' E 174°47'0 0.0
2019-Jul-15 06:00S 41°16' E 174°47'0 0.0
2019-Jul-15 05:30S 41°16' E 174°47'4 8.2
2019-Jul-15 05:00S 41°19' E 174°51'713.9
2019-Jul-15 04:30S 41°23' E 174°45'714.9
2019-Jul-15 04:01S 41°21' E 174°35'1019.4
2019-Jul-15 03:31S 41°17' E 174°24'613.0
2019-Jul-15 03:01S 41°14' E 174°16'612.1
2019-Jul-15 02:30S 41°14' E 174°08'612.9
2019-Jul-15 02:00S 41°17' E 174°00'0 0.0
2019-Jul-15 01:28S 41°17' E 174°00'0 0.0
2019-Jul-15 00:58S 41°17' E 174°00'0 0.0
2019-Jul-15 00:29S 41°17' E 174°00'2 5.2
2019-Jul-15 00:00S 41°15' E 174°02'612.8
2019-Jul-14 23:30S 41°15' E 174°11'713.3
2019-Jul-14 23:01S 41°13' E 174°19'816.0
2019-Jul-14 22:30S 41°17' E 174°28'815.0
2019-Jul-14 22:00S 41°21' E 174°36'714.3
2019-Jul-14 21:30S 41°23' E 174°45'713.5
2019-Jul-14 21:01S 41°17' E 174°50'2 4.7
2019-Jul-14 20:30S 41°16' E 174°47'0 0.0
2019-Jul-14 20:00S 41°16' E 174°47'0 0.0
2019-Jul-14 19:30S 41°16' E 174°47'0 0.0
2019-Jul-14 19:00S 41°16' E 174°47'0 0.0
2019-Jul-14 18:30S 41°16' E 174°47'0 0.0
2019-Jul-14 18:00S 41°16' E 174°47'0 0.0
2019-Jul-14 17:30S 41°16' E 174°47'0 0.0
2019-Jul-14 17:00S 41°16' E 174°47'0 0.0
2019-Jul-14 16:30S 41°16' E 174°47'0 0.0
2019-Jul-14 16:00S 41°16' E 174°47'4 8.1
2019-Jul-14 15:30S 41°19' E 174°51'713.1
2019-Jul-14 15:00S 41°23' E 174°45'714.5
2019-Jul-14 14:31S 41°22' E 174°36'816.0
2019-Jul-14 14:01S 41°17' E 174°27'815.3
2019-Jul-14 13:30S 41°13' E 174°19'714.5
2019-Jul-14 13:01S 41°15' E 174°10'612.5
2019-Jul-14 12:30S 41°16' E 174°02'2 3.1
2019-Jul-14 11:59S 41°17' E 174°00'0 0.0
2019-Jul-14 11:29S 41°17' E 174°00'2 4.0
2019-Jul-14 11:00S 41°15' E 174°02'611.9
2019-Jul-14 10:31S 41°15' E 174°10'612.5
2019-Jul-14 10:00S 41°13' E 174°18'714.5
2019-Jul-14 09:30S 41°16' E 174°26'815.2
2019-Jul-14 09:01S 41°20' E 174°35'917.2
2019-Jul-14 08:31S 41°23' E 174°46'713.5
2019-Jul-14 08:01S 41°16' E 174°49'2 3.3
2019-Jul-14 07:30S 41°16' E 174°47'0 0.0
2019-Jul-14 07:01S 41°16' E 174°47'1 2.3
2019-Jul-14 06:31S 41°16' E 174°49'3 5.0
2019-Jul-14 06:00S 41°16' E 174°52'2 3.8
2019-Jul-14 05:31S 41°15' E 174°50'2 3.9
2019-Jul-14 05:00S 41°16' E 174°47'0 0.0
2019-Jul-14 04:31S 41°16' E 174°47'0 0.0
2019-Jul-14 04:01S 41°16' E 174°47'0 0.0
2019-Jul-14 03:31S 41°16' E 174°47'0 0.0
2019-Jul-14 03:00S 41°16' E 174°47'0 0.0
2019-Jul-14 02:31S 41°16' E 174°47'0 0.0
2019-Jul-14 02:00S 41°16' E 174°47'0 0.0
2019-Jul-14 01:30S 41°16' E 174°47'0 0.0
2019-Jul-14 01:01S 41°16' E 174°47'0 0.0
2019-Jul-14 00:30S 41°16' E 174°47'0 0.0
2019-Jul-14 00:01S 41°16' E 174°47'0 0.0
2019-Jul-13 23:31S 41°16' E 174°47'0 0.0
2019-Jul-13 23:00S 41°16' E 174°47'0 0.0
2019-Jul-13 22:31S 41°16' E 174°47'0 0.0
2019-Jul-13 22:01S 41°16' E 174°47'0 0.0
2019-Jul-13 21:30S 41°16' E 174°47'1 1.1
2019-Jul-13 21:01S 41°16' E 174°48'2 3.2
2019-Jul-13 20:31S 41°16' E 174°50'1 1.5
2019-Jul-13 20:00S 41°15' E 174°50'1 1.1
2019-Jul-13 19:31S 41°15' E 174°50'0 0.5
2019-Jul-13 19:01S 41°15' E 174°49'1 1.7
2019-Jul-13 18:31S 41°16' E 174°50'1 1.8
2019-Jul-13 18:01S 41°15' E 174°49'1 2.7
2019-Jul-13 17:31S 41°16' E 174°48'0 0.8
2019-Jul-13 16:58S 41°16' E 174°47'0 0.0
2019-Jul-13 16:28S 41°16' E 174°47'0 0.0
2019-Jul-13 15:58S 41°16' E 174°47'0 0.0
2019-Jul-13 15:28S 41°16' E 174°47'0 0.0
2019-Jul-13 14:58S 41°16' E 174°47'0 0.0
2019-Jul-13 14:29S 41°16' E 174°47'0 0.0
2019-Jul-13 14:00S 41°16' E 174°47'0 0.0
2019-Jul-13 13:30S 41°16' E 174°47'3 5.2
2019-Jul-13 13:00S 41°16' E 174°51'714.7
2019-Jul-13 12:30S 41°24' E 174°48'917.8
2019-Jul-13 12:01S 41°22' E 174°36'918.2
2019-Jul-13 11:31S 41°17' E 174°26'815.7
2019-Jul-13 11:00S 41°13' E 174°17'713.3
2019-Jul-13 10:30S 41°14' E 174°08'713.5
2019-Jul-13 10:00S 41°17' E 174°00'0 0.0
2019-Jul-13 09:30S 41°17' E 174°00'0 0.0
2019-Jul-13 09:00S 41°17' E 174°00'0 0.0
2019-Jul-13 08:30S 41°17' E 174°00'1 2.2
2019-Jul-13 08:00S 41°16' E 174°01'713.1
2019-Jul-13 07:30S 41°14' E 174°09'612.3
2019-Jul-13 07:00S 41°13' E 174°17'815.7
2019-Jul-13 06:30S 41°17' E 174°27'917.5
2019-Jul-13 06:00S 41°21' E 174°36'917.8
2019-Jul-13 05:30S 41°22' E 174°48'612.5
2019-Jul-13 05:00S 41°16' E 174°48'1 1.2
2019-Jul-13 04:30S 41°16' E 174°47'0 0.0
2019-Jul-13 04:00S 41°16' E 174°47'0 0.0
2019-Jul-13 03:30S 41°16' E 174°47'0 0.0
2019-Jul-13 03:00S 41°16' E 174°47'0 0.0
2019-Jul-13 02:30S 41°16' E 174°47'0 0.0
2019-Jul-13 01:57S 41°16' E 174°47'0 0.0
2019-Jul-13 01:27S 41°16' E 174°47'0 0.0
2019-Jul-13 01:00S 41°16' E 174°47'0 0.0
2019-Jul-13 00:30S 41°16' E 174°47'0 0.0
2019-Jul-13 00:00S 41°16' E 174°47'510.0
2019-Jul-12 23:30S 41°20' E 174°51'714.7
2019-Jul-12 23:00S 41°23' E 174°42'1019.6
2019-Jul-12 22:30S 41°19' E 174°30'918.9
2019-Jul-12 22:00S 41°14' E 174°20'815.0
2019-Jul-12 21:30S 41°15' E 174°10'713.1
2019-Jul-12 21:00S 41°15' E 174°02'2 3.6
2019-Jul-12 20:28S 41°17' E 174°00'0 0.0
2019-Jul-12 19:58S 41°17' E 174°00'0 0.0
2019-Jul-12 19:28S 41°17' E 174°00'0 0.0
2019-Jul-12 18:59S 41°17' E 174°00'2 3.8
2019-Jul-12 18:30S 41°15' E 174°02'612.4
2019-Jul-12 18:01S 41°15' E 174°10'714.6
2019-Jul-12 17:31S 41°13' E 174°19'714.7
2019-Jul-12 17:00S 41°17' E 174°27'714.2
2019-Jul-12 16:30S 41°21' E 174°35'815.0
2019-Jul-12 16:00S 41°23' E 174°45'612.7
2019-Jul-12 15:30S 41°19' E 174°51'4 8.0
2019-Jul-12 15:00S 41°16' E 174°47'0 0.0
2019-Jul-12 14:28S 41°16' E 174°47'0 0.0
2019-Jul-12 13:58S 41°16' E 174°47'0 0.0
2019-Jul-12 13:28S 41°16' E 174°47'1 2.2
2019-Jul-12 13:00S 41°16' E 174°48'611.7
2019-Jul-12 12:30S 41°22' E 174°50'713.9
2019-Jul-12 12:00S 41°23' E 174°41'816.7
2019-Jul-12 11:30S 41°19' E 174°31'816.2
2019-Jul-12 11:00S 41°15' E 174°22'612.5
2019-Jul-12 10:30S 41°14' E 174°14'713.5
2019-Jul-12 10:00S 41°14' E 174°05'4 8.1
2019-Jul-12 09:30S 41°17' E 174°00'0 0.0
2019-Jul-12 09:00S 41°17' E 174°00'0 0.0
2019-Jul-12 08:30S 41°17' E 174°00'1 2.6
2019-Jul-12 08:00S 41°16' E 174°01'612.6
2019-Jul-12 07:30S 41°14' E 174°09'612.3
2019-Jul-12 07:00S 41°13' E 174°17'714.2
2019-Jul-12 06:30S 41°16' E 174°26'816.3
2019-Jul-12 06:00S 41°21' E 174°35'816.6
2019-Jul-12 05:30S 41°23' E 174°46'713.4
2019-Jul-12 05:00S 41°17' E 174°50'2 3.9
2019-Jul-12 04:28S 41°16' E 174°47'0 0.0
2019-Jul-12 03:58S 41°16' E 174°47'0 0.0
2019-Jul-12 03:25S 41°16' E 174°47'0 0.0
2019-Jul-12 02:58S 41°16' E 174°47'0 0.0
2019-Jul-12 02:28S 41°16' E 174°47'0 0.0
2019-Jul-12 01:28S 41°16' E 174°47'0 0.0
2019-Jul-12 00:58S 41°16' E 174°47'0 0.0
2019-Jul-12 00:28S 41°16' E 174°47'0 0.0
2019-Jul-12 00:00S 41°16' E 174°47'5 9.9
2019-Jul-11 23:30S 41°20' E 174°51'714.3
2019-Jul-11 23:00S 41°23' E 174°43'918.4
2019-Jul-11 22:30S 41°20' E 174°32'917.9
2019-Jul-11 22:00S 41°15' E 174°22'714.0
2019-Jul-11 21:30S 41°14' E 174°12'713.9
2019-Jul-11 21:00S 41°15' E 174°03'3 5.6
2019-Jul-11 20:28S 41°17' E 174°00'0 0.0
2019-Jul-11 19:58S 41°17' E 174°00'0 0.0
2019-Jul-11 19:28S 41°17' E 174°00'0 0.0
2019-Jul-11 18:59S 41°17' E 174°00'2 4.6
2019-Jul-11 18:30S 41°15' E 174°02'612.3
2019-Jul-11 18:01S 41°15' E 174°10'713.6
2019-Jul-11 17:30S 41°13' E 174°18'713.5
2019-Jul-11 17:00S 41°16' E 174°26'713.9
2019-Jul-11 16:30S 41°20' E 174°34'815.1
2019-Jul-11 16:00S 41°23' E 174°43'713.2
2019-Jul-11 15:30S 41°20' E 174°51'5 9.9
2019-Jul-11 15:00S 41°16' E 174°47'0 0.0
2019-Jul-11 14:30S 41°16' E 174°47'0 0.0
2019-Jul-11 14:00S 41°16' E 174°47'0 0.0
2019-Jul-11 13:30S 41°16' E 174°47'2 4.8
2019-Jul-11 13:00S 41°16' E 174°50'714.6
2019-Jul-11 12:30S 41°23' E 174°48'917.0
2019-Jul-11 12:00S 41°22' E 174°37'918.0
2019-Jul-11 11:30S 41°17' E 174°27'816.1
2019-Jul-11 11:00S 41°13' E 174°18'713.8
2019-Jul-11 10:30S 41°14' E 174°09'612.9
2019-Jul-11 10:00S 41°16' E 174°01'1 1.5
2019-Jul-11 09:28S 41°17' E 174°00'0 0.0
2019-Jul-11 08:58S 41°17' E 174°00'0 0.0
2019-Jul-11 08:30S 41°17' E 174°00'4 8.0
2019-Jul-11 08:00S 41°14' E 174°04'612.2
2019-Jul-11 07:30S 41°14' E 174°12'611.8
2019-Jul-11 07:00S 41°13' E 174°20'816.6
2019-Jul-11 06:30S 41°18' E 174°29'815.6
2019-Jul-11 06:00S 41°22' E 174°38'816.5
2019-Jul-11 05:30S 41°22' E 174°49'6 1.1
2019-Jul-10 23:56S 41°16' E 174°47'611.1
2019-Jul-10 23:23S 41°22' E 174°50'615.3
2019-Jul-10 23:01S 41°23' E 174°43'917.7
2019-Jul-10 22:31S 41°20' E 174°32'918.2
2019-Jul-10 22:01S 41°15' E 174°22'713.2
2019-Jul-10 21:31S 41°14' E 174°13'713.2
2019-Jul-10 21:01S 41°14' E 174°04'4 7.8
2019-Jul-10 20:30S 41°17' E 174°00'0 0.0
2019-Jul-10 20:00S 41°17' E 174°00'0 0.0
2019-Jul-10 19:30S 41°17' E 174°00'0 0.0
2019-Jul-10 19:00S 41°17' E 174°00'3 5.2
2019-Jul-10 18:31S 41°15' E 174°02'713.2
2019-Jul-10 18:01S 41°15' E 174°11'713.0
2019-Jul-10 17:30S 41°13' E 174°19'815.5
2019-Jul-10 17:00S 41°17' E 174°28'815.9
2019-Jul-10 16:30S 41°21' E 174°37'714.1
2019-Jul-10 16:00S 41°23' E 174°46'612.6
2019-Jul-10 15:31S 41°17' E 174°51'3 1.9
2019-Jul-10 13:54S 41°16' E 174°47'0 0.0
2019-Jul-10 13:18S 41°16' E 174°47'1 3.1
2019-Jul-10 13:00S 41°16' E 174°48'612.1
2019-Jul-10 12:30S 41°22' E 174°50'714.6
2019-Jul-10 12:00S 41°23' E 174°41'816.1
2019-Jul-10 11:30S 41°19' E 174°31'917.1
2019-Jul-10 11:00S 41°15' E 174°21'511.0
2019-Jul-10 10:31S 41°14' E 174°14'612.7
2019-Jul-10 10:01S 41°14' E 174°06'5 9.6
2019-Jul-10 09:31S 41°17' E 174°00'0 0.0
2019-Jul-10 09:01S 41°17' E 174°00'0 0.0
2019-Jul-10 08:31S 41°17' E 174°00'3 6.3
2019-Jul-10 08:01S 41°15' E 174°03'612.6
2019-Jul-10 07:31S 41°14' E 174°11'612.5
2019-Jul-10 07:00S 41°13' E 174°20'815.8
2019-Jul-10 06:30S 41°17' E 174°28'714.8
2019-Jul-10 06:00S 41°21' E 174°37'714.7
2019-Jul-10 05:30S 41°23' E 174°46'612.2
2019-Jul-10 04:59S 41°17' E 174°50'2 1.0
2019-Jul-10 03:09S 41°16' E 174°47'0 0.0
2019-Jul-10 00:12S 41°16' E 174°47'0 1.0
2019-Jul-10 00:00S 41°16' E 174°47'611.6
2019-Jul-09 23:30S 41°21' E 174°50'815.8
2019-Jul-09 23:00S 41°23' E 174°40'919.0
2019-Jul-09 22:30S 41°19' E 174°29'918.1
2019-Jul-09 22:00S 41°13' E 174°20'713.4
2019-Jul-09 21:30S 41°15' E 174°11'713.4
2019-Jul-09 21:00S 41°15' E 174°02'2 4.8
2019-Jul-09 20:31S 41°17' E 174°00'0 0.0
2019-Jul-09 20:01S 41°17' E 174°00'0 0.0
2019-Jul-09 19:30S 41°17' E 174°00'0 0.0
2019-Jul-09 19:01S 41°17' E 174°00'1 1.7
2019-Jul-09 18:30S 41°16' E 174°01'713.6
2019-Jul-09 18:01S 41°14' E 174°09'611.0
2019-Jul-09 17:30S 41°13' E 174°17'612.0
2019-Jul-09 17:00S 41°15' E 174°24'714.2
2019-Jul-09 16:31S 41°19' E 174°32'714.3
2019-Jul-09 16:00S 41°23' E 174°41'815.2
2019-Jul-09 15:29S 41°20' E 174°51'5 2.9
2019-Jul-09 13:42S 41°16' E 174°47'0 0.0
2019-Jul-09 13:20S 41°16' E 174°47'1 3.2
2019-Jul-09 13:00S 41°16' E 174°49'613.0
2019-Jul-09 12:30S 41°23' E 174°50'815.5
2019-Jul-09 12:00S 41°23' E 174°40'917.2
2019-Jul-09 11:30S 41°19' E 174°30'918.9
2019-Jul-09 11:00S 41°13' E 174°20'612.7
2019-Jul-09 10:30S 41°15' E 174°11'612.4
2019-Jul-09 10:01S 41°15' E 174°03'3 6.0
2019-Jul-09 09:29S 41°17' E 174°00'0 0.0
2019-Jul-09 08:59S 41°17' E 174°00'0 0.0
2019-Jul-09 08:30S 41°17' E 174°00'1 2.8
2019-Jul-09 08:00S 41°16' E 174°01'612.5
2019-Jul-09 07:31S 41°14' E 174°09'713.0
2019-Jul-09 07:00S 41°13' E 174°18'815.2
2019-Jul-09 06:31S 41°17' E 174°27'815.4
2019-Jul-09 06:01S 41°21' E 174°35'713.9
2019-Jul-09 05:30S 41°23' E 174°44'713.8
2019-Jul-09 05:00S 41°18' E 174°51'4 1.2
2019-Jul-09 01:55S 41°16' E 174°47'0 0.0
2019-Jul-09 01:13S 41°16' E 174°47'0 0.0
2019-Jul-09 00:17S 41°16' E 174°47'3 9.7
2019-Jul-09 00:00S 41°17' E 174°51'714.3
2019-Jul-08 23:31S 41°23' E 174°49'815.3
2019-Jul-08 23:00S 41°23' E 174°39'714.7
2019-Jul-08 22:30S 41°19' E 174°31'816.2
2019-Jul-08 22:00S 41°15' E 174°21'611.1
2019-Jul-08 21:31S 41°14' E 174°14'713.0
2019-Jul-08 21:01S 41°14' E 174°05'5 9.4
2019-Jul-08 20:31S 41°17' E 174°00'0 0.0
2019-Jul-08 20:00S 41°17' E 174°00'0 0.0
2019-Jul-08 19:31S 41°17' E 174°00'0 0.0
2019-Jul-08 19:01S 41°17' E 174°00'2 3.3
2019-Jul-08 18:30S 41°16' E 174°01'612.3
2019-Jul-08 18:01S 41°15' E 174°09'612.9
2019-Jul-08 17:30S 41°13' E 174°18'713.8
2019-Jul-08 17:00S 41°16' E 174°26'713.9
2019-Jul-08 16:31S 41°20' E 174°34'611.8
2019-Jul-08 16:00S 41°23' E 174°41'814.5
2019-Jul-08 15:29S 41°21' E 174°51'6 5.9
2019-Jul-08 14:32S 41°16' E 174°47'0 0.0
2019-Jul-08 13:26S 41°16' E 174°47'0 0.0
2019-Jul-08 11:56S 41°16' E 174°47'0 0.0
2019-Jul-08 11:14S 41°16' E 174°47'0 0.0
2019-Jul-08 10:44S 41°16' E 174°47'0 0.1
2019-Jul-08 08:39S 41°16' E 174°47'0 0.0
2019-Jul-08 06:46S 41°16' E 174°47'0 0.0
2019-Jul-08 04:07S 41°16' E 174°47'0 0.0
2019-Jul-08 02:46S 41°16' E 174°47'0 0.0
2019-Jul-08 01:28S 41°16' E 174°47'0 0.0
2019-Jul-08 00:55S 41°16' E 174°47'0 0.0
2019-Jul-08 00:28S 41°16' E 174°47'0 0.0
2019-Jul-07 23:52S 41°16' E 174°47'0 0.0
2019-Jul-07 23:28S 41°16' E 174°47'0 0.0
2019-Jul-07 22:58S 41°16' E 174°47'0 0.0
2019-Jul-07 22:21S 41°16' E 174°47'0 0.0
2019-Jul-07 21:58S 41°16' E 174°47'0 0.0
2019-Jul-07 21:24S 41°16' E 174°47'0 0.0
2019-Jul-07 20:57S 41°16' E 174°47'0 0.0
2019-Jul-07 20:24S 41°16' E 174°47'0 0.0
2019-Jul-07 17:21S 41°16' E 174°47'0 0.0
2019-Jul-07 16:33S 41°16' E 174°47'0 0.0
2019-Jul-07 15:57S 41°16' E 174°47'0 0.0
2019-Jul-07 15:27S 41°16' E 174°47'0 0.0
2019-Jul-07 14:27S 41°16' E 174°47'0 0.0
2019-Jul-07 12:27S 41°16' E 174°47'0 0.0
2019-Jul-07 11:42S 41°16' E 174°47'0 0.0
2019-Jul-07 10:45S 41°16' E 174°47'0 0.0
2019-Jul-07 10:15S 41°16' E 174°47'0 0.0
2019-Jul-07 09:51S 41°16' E 174°47'0 0.0
2019-Jul-07 09:03S 41°16' E 174°47'0 0.0
2019-Jul-07 08:57S 41°16' E 174°47'0 0.0
2019-Jul-07 08:09S 41°16' E 174°47'0 0.0
2019-Jul-07 07:33S 41°16' E 174°47'0 0.0
2019-Jul-07 06:57S 41°16' E 174°47'0 0.0
2019-Jul-07 06:21S 41°16' E 174°47'0 0.0
2019-Jul-07 06:00S 41°16' E 174°47'0 0.0
2019-Jul-07 03:24S 41°16' E 174°47'0 0.0
2019-Jul-07 02:45S 41°16' E 174°47'0 0.0
2019-Jul-07 01:57S 41°16' E 174°47'0 0.0
2019-Jul-07 01:22S 41°16' E 174°47'0 0.0
2019-Jul-07 00:49S 41°16' E 174°47'0 0.0
2019-Jul-06 23:55S 41°16' E 174°47'0 0.0
2019-Jul-06 23:19S 41°16' E 174°47'0 0.0
2019-Jul-06 22:31S 41°16' E 174°47'0 0.0
2019-Jul-06 21:55S 41°16' E 174°47'0 0.0
2019-Jul-06 21:25S 41°16' E 174°47'0 0.0
2019-Jul-06 20:49S 41°16' E 174°47'0 0.0
2019-Jul-06 20:19S 41°16' E 174°47'0 0.0
2019-Jul-06 19:55S 41°16' E 174°47'0 0.0
2019-Jul-06 19:25S 41°16' E 174°47'0 0.0
2019-Jul-06 18:49S 41°16' E 174°47'0 0.0
2019-Jul-06 18:30S 41°16' E 174°47'0 0.3
2019-Jul-06 17:59S 41°16' E 174°47'1 1.0
2019-Jul-06 17:30S 41°16' E 174°48'0 0.6
2019-Jul-06 17:00S 41°16' E 174°48'0 0.4
2019-Jul-06 16:30S 41°16' E 174°48'0 0.4
2019-Jul-06 15:33S 41°16' E 174°47'0 0.0
2019-Jul-06 15:12S 41°16' E 174°47'0 0.0
2019-Jul-06 15:00S 41°16' E 174°47'4 7.4
2019-Jul-06 14:30S 41°18' E 174°51'713.0
2019-Jul-06 14:00S 41°24' E 174°47'816.1
2019-Jul-06 13:30S 41°22' E 174°37'815.0
2019-Jul-06 13:00S 41°18' E 174°28'815.0
2019-Jul-06 12:30S 41°13' E 174°20'713.7
2019-Jul-06 12:00S 41°15' E 174°11'612.6
2019-Jul-06 11:30S 41°15' E 174°03'3 5.3
2019-Jul-06 10:58S 41°17' E 174°00'0 0.0
2019-Jul-06 10:28S 41°17' E 174°00'  
Track history (hours):
 
Tides and Currents Weather Stations Pressure Air Temp Water Temp Dewpoint Dewpoint Depression Visibility Wind Speed Wind Dir Waves Ship Positions

Dawn Merchant

Operator: Norfolk Line

Last reported at 2019-Jul-16 10:01 UTC. Time now 2019-Jul-16 10:07 UTC.
Position S 41°14' E 174°21'.

Length 180 m; draft 5.8 m.

Type: Passenger vessel. MMSI: 232197000.

Date/timePositionNaut miles runAvg speedWind from/ knotsBaromVisibWave heightAir tempDewpointWater temp
2019-Jul-16 10:01S 41°14' E 174°21'1020.7
2019-Jul-16 09:30S 41°19' E 174°32'1020.4
2019-Jul-16 09:01S 41°23' E 174°45'713.9
2019-Jul-16 08:31S 41°16' E 174°49'1 2.2
2019-Jul-16 08:00S 41°16' E 174°47'0 0.0
2019-Jul-16 07:30S 41°16' E 174°47'0 0.0
2019-Jul-16 07:00S 41°16' E 174°47'0 0.0
2019-Jul-16 06:30S 41°16' E 174°47'0 0.0
2019-Jul-16 06:00S 41°16' E 174°47'1 2.7
2019-Jul-16 05:30S 41°16' E 174°49'714.4
2019-Jul-16 05:00S 41°23' E 174°48'917.8
2019-Jul-16 04:31S 41°22' E 174°37'1020.1
2019-Jul-16 04:00S 41°17' E 174°25'815.2
2019-Jul-16 03:31S 41°14' E 174°16'612.3
2019-Jul-16 03:01S 41°14' E 174°08'612.6
2019-Jul-16 02:30S 41°17' E 174°00'0 0.0
2019-Jul-16 01:59S 41°17' E 174°00'0 0.0
2019-Jul-16 01:29S 41°17' E 174°00'0 0.0
2019-Jul-16 00:59S 41°17' E 174°00'0 0.0
2019-Jul-16 00:29S 41°17' E 174°00'3 5.5
2019-Jul-16 00:00S 41°15' E 174°02'612.1
2019-Jul-15 23:31S 41°15' E 174°10'612.6
2019-Jul-15 23:01S 41°13' E 174°18'714.4
2019-Jul-15 22:31S 41°17' E 174°26'917.0
2019-Jul-15 22:00S 41°21' E 174°36'917.2
2019-Jul-15 21:31S 41°22' E 174°47'612.8
2019-Jul-15 21:01S 41°16' E 174°48'0 0.7
2019-Jul-15 20:30S 41°16' E 174°47'0 0.0
2019-Jul-15 20:00S 41°16' E 174°47'0 0.0
2019-Jul-15 19:30S 41°16' E 174°47'0 0.0
2019-Jul-15 19:00S 41°16' E 174°47'0 0.0
2019-Jul-15 18:30S 41°16' E 174°47'0 0.1
2019-Jul-15 18:00S 41°16' E 174°47'510.4
2019-Jul-15 17:30S 41°20' E 174°51'713.6
2019-Jul-15 17:00S 41°23' E 174°43'714.3
2019-Jul-15 16:30S 41°21' E 174°34'815.8
2019-Jul-15 16:01S 41°17' E 174°25'713.5
2019-Jul-15 15:30S 41°13' E 174°17'612.2
2019-Jul-15 15:01S 41°14' E 174°09'713.6
2019-Jul-15 14:30S 41°17' E 174°01'1 1.1
2019-Jul-15 14:00S 41°17' E 174°00'0 0.0
2019-Jul-15 13:30S 41°17' E 174°00'0 0.0
2019-Jul-15 13:00S 41°17' E 174°00'0 0.0
2019-Jul-15 12:30S 41°17' E 174°00'2 3.2
2019-Jul-15 12:00S 41°16' E 174°01'0 0.9
2019-Jul-15 11:30S 41°16' E 174°01'612.8
2019-Jul-15 11:00S 41°14' E 174°09'611.5
2019-Jul-15 10:30S 41°13' E 174°17'612.7
2019-Jul-15 10:00S 41°16' E 174°25'714.4
2019-Jul-15 09:31S 41°20' E 174°33'815.3
2019-Jul-15 09:01S 41°23' E 174°42'815.6
2019-Jul-15 08:30S 41°19' E 174°51'4 8.5
2019-Jul-15 08:00S 41°16' E 174°47'0 0.0
2019-Jul-15 07:24S 41°16' E 174°47'0 0.0
2019-Jul-15 07:00S 41°16' E 174°47'0 0.0
2019-Jul-15 06:30S 41°16' E 174°47'0 0.0
2019-Jul-15 06:00S 41°16' E 174°47'0 0.0
2019-Jul-15 05:30S 41°16' E 174°47'4 8.2
2019-Jul-15 05:00S 41°19' E 174°51'713.9
2019-Jul-15 04:30S 41°23' E 174°45'714.9
2019-Jul-15 04:01S 41°21' E 174°35'1019.4
2019-Jul-15 03:31S 41°17' E 174°24'613.0
2019-Jul-15 03:01S 41°14' E 174°16'612.1
2019-Jul-15 02:30S 41°14' E 174°08'612.9
2019-Jul-15 02:00S 41°17' E 174°00'0 0.0
2019-Jul-15 01:28S 41°17' E 174°00'0 0.0
2019-Jul-15 00:58S 41°17' E 174°00'0 0.0
2019-Jul-15 00:29S 41°17' E 174°00'2 5.2
2019-Jul-15 00:00S 41°15' E 174°02'612.8
2019-Jul-14 23:30S 41°15' E 174°11'713.3
2019-Jul-14 23:01S 41°13' E 174°19'816.0
2019-Jul-14 22:30S 41°17' E 174°28'815.0
2019-Jul-14 22:00S 41°21' E 174°36'714.3
2019-Jul-14 21:30S 41°23' E 174°45'713.5
2019-Jul-14 21:01S 41°17' E 174°50'2 4.7
2019-Jul-14 20:30S 41°16' E 174°47'0 0.0
2019-Jul-14 20:00S 41°16' E 174°47'0 0.0
2019-Jul-14 19:30S 41°16' E 174°47'0 0.0
2019-Jul-14 19:00S 41°16' E 174°47'0 0.0
2019-Jul-14 18:30S 41°16' E 174°47'0 0.0
2019-Jul-14 18:00S 41°16' E 174°47'0 0.0
2019-Jul-14 17:30S 41°16' E 174°47'0 0.0
2019-Jul-14 17:00S 41°16' E 174°47'0 0.0
2019-Jul-14 16:30S 41°16' E 174°47'0 0.0
2019-Jul-14 16:00S 41°16' E 174°47'4 8.1
2019-Jul-14 15:30S 41°19' E 174°51'713.1
2019-Jul-14 15:00S 41°23' E 174°45'714.5
2019-Jul-14 14:31S 41°22' E 174°36'816.0
2019-Jul-14 14:01S 41°17' E 174°27'815.3
2019-Jul-14 13:30S 41°13' E 174°19'714.5
2019-Jul-14 13:01S 41°15' E 174°10'612.5
2019-Jul-14 12:30S 41°16' E 174°02'2 3.1
2019-Jul-14 11:59S 41°17' E 174°00'0 0.0
2019-Jul-14 11:29S 41°17' E 174°00'2 4.0
2019-Jul-14 11:00S 41°15' E 174°02'611.9
2019-Jul-14 10:31S 41°15' E 174°10'612.5
2019-Jul-14 10:00S 41°13' E 174°18'714.5
2019-Jul-14 09:30S 41°16' E 174°26'815.2
2019-Jul-14 09:01S 41°20' E 174°35'917.2
2019-Jul-14 08:31S 41°23' E 174°46'713.5
2019-Jul-14 08:01S 41°16' E 174°49'2 3.3
2019-Jul-14 07:30S 41°16' E 174°47'0 0.0
2019-Jul-14 07:01S 41°16' E 174°47'1 2.3
2019-Jul-14 06:31S 41°16' E 174°49'3 5.0
2019-Jul-14 06:00S 41°16' E 174°52'2 3.8
2019-Jul-14 05:31S 41°15' E 174°50'2 3.9
2019-Jul-14 05:00S 41°16' E 174°47'0 0.0
2019-Jul-14 04:31S 41°16' E 174°47'0 0.0
2019-Jul-14 04:01S 41°16' E 174°47'0 0.0
2019-Jul-14 03:31S 41°16' E 174°47'0 0.0
2019-Jul-14 03:00S 41°16' E 174°47'0 0.0
2019-Jul-14 02:31S 41°16' E 174°47'0 0.0
2019-Jul-14 02:00S 41°16' E 174°47'0 0.0
2019-Jul-14 01:30S 41°16' E 174°47'0 0.0
2019-Jul-14 01:01S 41°16' E 174°47'0 0.0
2019-Jul-14 00:30S 41°16' E 174°47'0 0.0
2019-Jul-14 00:01S 41°16' E 174°47'0 0.0
2019-Jul-13 23:31S 41°16' E 174°47'0 0.0
2019-Jul-13 23:00S 41°16' E 174°47'0 0.0
2019-Jul-13 22:31S 41°16' E 174°47'0 0.0
2019-Jul-13 22:01S 41°16' E 174°47'0 0.0
2019-Jul-13 21:30S 41°16' E 174°47'1 1.1
2019-Jul-13 21:01S 41°16' E 174°48'2 3.2
2019-Jul-13 20:31S 41°16' E 174°50'1 1.5
2019-Jul-13 20:00S 41°15' E 174°50'1 1.1
2019-Jul-13 19:31S 41°15' E 174°50'0 0.5
2019-Jul-13 19:01S 41°15' E 174°49'1 1.7
2019-Jul-13 18:31S 41°16' E 174°50'1 1.8
2019-Jul-13 18:01S 41°15' E 174°49'1 2.7
2019-Jul-13 17:31S 41°16' E 174°48'0 0.8
2019-Jul-13 16:58S 41°16' E 174°47'0 0.0
2019-Jul-13 16:28S 41°16' E 174°47'0 0.0
2019-Jul-13 15:58S 41°16' E 174°47'0 0.0
2019-Jul-13 15:28S 41°16' E 174°47'0 0.0
2019-Jul-13 14:58S 41°16' E 174°47'0 0.0
2019-Jul-13 14:29S 41°16' E 174°47'0 0.0
2019-Jul-13 14:00S 41°16' E 174°47'0 0.0
2019-Jul-13 13:30S 41°16' E 174°47'3 5.2
2019-Jul-13 13:00S 41°16' E 174°51'714.7
2019-Jul-13 12:30S 41°24' E 174°48'917.8
2019-Jul-13 12:01S 41°22' E 174°36'918.2
2019-Jul-13 11:31S 41°17' E 174°26'815.7
2019-Jul-13 11:00S 41°13' E 174°17'713.3
2019-Jul-13 10:30S 41°14' E 174°08'713.5
2019-Jul-13 10:00S 41°17' E 174°00'0 0.0
2019-Jul-13 09:30S 41°17' E 174°00'0 0.0
2019-Jul-13 09:00S 41°17' E 174°00'0 0.0
2019-Jul-13 08:30S 41°17' E 174°00'1 2.2
2019-Jul-13 08:00S 41°16' E 174°01'713.1
2019-Jul-13 07:30S 41°14' E 174°09'612.3
2019-Jul-13 07:00S 41°13' E 174°17'815.7
2019-Jul-13 06:30S 41°17' E 174°27'917.5
2019-Jul-13 06:00S 41°21' E 174°36'917.8
2019-Jul-13 05:30S 41°22' E 174°48'612.5
2019-Jul-13 05:00S 41°16' E 174°48'1 1.2
2019-Jul-13 04:30S 41°16' E 174°47'0 0.0
2019-Jul-13 04:00S 41°16' E 174°47'0 0.0
2019-Jul-13 03:30S 41°16' E 174°47'0 0.0
2019-Jul-13 03:00S 41°16' E 174°47'0 0.0
2019-Jul-13 02:30S 41°16' E 174°47'0 0.0
2019-Jul-13 01:57S 41°16' E 174°47'0 0.0
2019-Jul-13 01:27S 41°16' E 174°47'0 0.0
2019-Jul-13 01:00S 41°16' E 174°47'0 0.0
2019-Jul-13 00:30S 41°16' E 174°47'0 0.0
2019-Jul-13 00:00S 41°16' E 174°47'510.0
2019-Jul-12 23:30S 41°20' E 174°51'714.7
2019-Jul-12 23:00S 41°23' E 174°42'1019.6
2019-Jul-12 22:30S 41°19' E 174°30'918.9
2019-Jul-12 22:00S 41°14' E 174°20'815.0
2019-Jul-12 21:30S 41°15' E 174°10'713.1
2019-Jul-12 21:00S 41°15' E 174°02'2 3.6
2019-Jul-12 20:28S 41°17' E 174°00'0 0.0
2019-Jul-12 19:58S 41°17' E 174°00'0 0.0
2019-Jul-12 19:28S 41°17' E 174°00'0 0.0
2019-Jul-12 18:59S 41°17' E 174°00'2 3.8
2019-Jul-12 18:30S 41°15' E 174°02'612.4
2019-Jul-12 18:01S 41°15' E 174°10'714.6
2019-Jul-12 17:31S 41°13' E 174°19'714.7
2019-Jul-12 17:00S 41°17' E 174°27'714.2
2019-Jul-12 16:30S 41°21' E 174°35'815.0
2019-Jul-12 16:00S 41°23' E 174°45'612.7
2019-Jul-12 15:30S 41°19' E 174°51'4 8.0
2019-Jul-12 15:00S 41°16' E 174°47'0 0.0
2019-Jul-12 14:28S 41°16' E 174°47'0 0.0
2019-Jul-12 13:58S 41°16' E 174°47'0 0.0
2019-Jul-12 13:28S 41°16' E 174°47'1 2.2
2019-Jul-12 13:00S 41°16' E 174°48'611.7
2019-Jul-12 12:30S 41°22' E 174°50'713.9
2019-Jul-12 12:00S 41°23' E 174°41'816.7
2019-Jul-12 11:30S 41°19' E 174°31'816.2
2019-Jul-12 11:00S 41°15' E 174°22'612.5
2019-Jul-12 10:30S 41°14' E 174°14'713.5
2019-Jul-12 10:00S 41°14' E 174°05'4 8.1
2019-Jul-12 09:30S 41°17' E 174°00'0 0.0
2019-Jul-12 09:00S 41°17' E 174°00'0 0.0
2019-Jul-12 08:30S 41°17' E 174°00'1 2.6
2019-Jul-12 08:00S 41°16' E 174°01'612.6
2019-Jul-12 07:30S 41°14' E 174°09'612.3
2019-Jul-12 07:00S 41°13' E 174°17'714.2
2019-Jul-12 06:30S 41°16' E 174°26'816.3
2019-Jul-12 06:00S 41°21' E 174°35'816.6
2019-Jul-12 05:30S 41°23' E 174°46'713.4
2019-Jul-12 05:00S 41°17' E 174°50'2 3.9
2019-Jul-12 04:28S 41°16' E 174°47'0 0.0
2019-Jul-12 03:58S 41°16' E 174°47'0 0.0
2019-Jul-12 03:25S 41°16' E 174°47'0 0.0
2019-Jul-12 02:58S 41°16' E 174°47'0 0.0
2019-Jul-12 02:28S 41°16' E 174°47'0 0.0
2019-Jul-12 01:28S 41°16' E 174°47'0 0.0
2019-Jul-12 00:58S 41°16' E 174°47'0 0.0
2019-Jul-12 00:28S 41°16' E 174°47'0 0.0
2019-Jul-12 00:00S 41°16' E 174°47'5 9.9
2019-Jul-11 23:30S 41°20' E 174°51'714.3
2019-Jul-11 23:00S 41°23' E 174°43'918.4
2019-Jul-11 22:30S 41°20' E 174°32'917.9
2019-Jul-11 22:00S 41°15' E 174°22'714.0
2019-Jul-11 21:30S 41°14' E 174°12'713.9
2019-Jul-11 21:00S 41°15' E 174°03'3 5.6
2019-Jul-11 20:28S 41°17' E 174°00'0 0.0
2019-Jul-11 19:58S 41°17' E 174°00'0 0.0
2019-Jul-11 19:28S 41°17' E 174°00'0 0.0
2019-Jul-11 18:59S 41°17' E 174°00'2 4.6
2019-Jul-11 18:30S 41°15' E 174°02'612.3
2019-Jul-11 18:01S 41°15' E 174°10'713.6
2019-Jul-11 17:30S 41°13' E 174°18'713.5
2019-Jul-11 17:00S 41°16' E 174°26'713.9
2019-Jul-11 16:30S 41°20' E 174°34'815.1
2019-Jul-11 16:00S 41°23' E 174°43'713.2
2019-Jul-11 15:30S 41°20' E 174°51'5 9.9
2019-Jul-11 15:00S 41°16' E 174°47'0 0.0
2019-Jul-11 14:30S 41°16' E 174°47'0 0.0
2019-Jul-11 14:00S 41°16' E 174°47'0 0.0
2019-Jul-11 13:30S 41°16' E 174°47'2 4.8
2019-Jul-11 13:00S 41°16' E 174°50'714.6
2019-Jul-11 12:30S 41°23' E 174°48'917.0
2019-Jul-11 12:00S 41°22' E 174°37'918.0
2019-Jul-11 11:30S 41°17' E 174°27'816.1
2019-Jul-11 11:00S 41°13' E 174°18'713.8
2019-Jul-11 10:30S 41°14' E 174°09'612.9
2019-Jul-11 10:00S 41°16' E 174°01'1 1.5
2019-Jul-11 09:28S 41°17' E 174°00'0 0.0
2019-Jul-11 08:58S 41°17' E 174°00'0 0.0
2019-Jul-11 08:30S 41°17' E 174°00'4 8.0
2019-Jul-11 08:00S 41°14' E 174°04'612.2
2019-Jul-11 07:30S 41°14' E 174°12'611.8
2019-Jul-11 07:00S 41°13' E 174°20'816.6
2019-Jul-11 06:30S 41°18' E 174°29'815.6
2019-Jul-11 06:00S 41°22' E 174°38'816.5
2019-Jul-11 05:30S 41°22' E 174°49'6 1.1
2019-Jul-10 23:56S 41°16' E 174°47'611.1
2019-Jul-10 23:23S 41°22' E 174°50'615.3
2019-Jul-10 23:01S 41°23' E 174°43'917.7
2019-Jul-10 22:31S 41°20' E 174°32'918.2
2019-Jul-10 22:01S 41°15' E 174°22'713.2
2019-Jul-10 21:31S 41°14' E 174°13'713.2
2019-Jul-10 21:01S 41°14' E 174°04'4 7.8
2019-Jul-10 20:30S 41°17' E 174°00'0 0.0
2019-Jul-10 20:00S 41°17' E 174°00'0 0.0
2019-Jul-10 19:30S 41°17' E 174°00'0 0.0
2019-Jul-10 19:00S 41°17' E 174°00'3 5.2
2019-Jul-10 18:31S 41°15' E 174°02'713.2
2019-Jul-10 18:01S 41°15' E 174°11'713.0
2019-Jul-10 17:30S 41°13' E 174°19'815.5
2019-Jul-10 17:00S 41°17' E 174°28'815.9
2019-Jul-10 16:30S 41°21' E 174°37'714.1
2019-Jul-10 16:00S 41°23' E 174°46'612.6
2019-Jul-10 15:31S 41°17' E 174°51'3 1.9
2019-Jul-10 13:54S 41°16' E 174°47'0 0.0
2019-Jul-10 13:18S 41°16' E 174°47'1 3.1
2019-Jul-10 13:00S 41°16' E 174°48'612.1
2019-Jul-10 12:30S 41°22' E 174°50'714.6
2019-Jul-10 12:00S 41°23' E 174°41'816.1
2019-Jul-10 11:30S 41°19' E 174°31'917.1
2019-Jul-10 11:00S 41°15' E 174°21'511.0
2019-Jul-10 10:31S 41°14' E 174°14'612.7
2019-Jul-10 10:01S 41°14' E 174°06'5 9.6
2019-Jul-10 09:31S 41°17' E 174°00'0 0.0
2019-Jul-10 09:01S 41°17' E 174°00'0 0.0
2019-Jul-10 08:31S 41°17' E 174°00'3 6.3
2019-Jul-10 08:01S 41°15' E 174°03'612.6
2019-Jul-10 07:31S 41°14' E 174°11'612.5
2019-Jul-10 07:00S 41°13' E 174°20'815.8
2019-Jul-10 06:30S 41°17' E 174°28'714.8
2019-Jul-10 06:00S 41°21' E 174°37'714.7
2019-Jul-10 05:30S 41°23' E 174°46'612.2
2019-Jul-10 04:59S 41°17' E 174°50'2 1.0
2019-Jul-10 03:09S 41°16' E 174°47'0 0.0
2019-Jul-10 00:12S 41°16' E 174°47'0 1.0
2019-Jul-10 00:00S 41°16' E 174°47'611.6
2019-Jul-09 23:30S 41°21' E 174°50'815.8
2019-Jul-09 23:00S 41°23' E 174°40'919.0
2019-Jul-09 22:30S 41°19' E 174°29'918.1
2019-Jul-09 22:00S 41°13' E 174°20'713.4
2019-Jul-09 21:30S 41°15' E 174°11'713.4
2019-Jul-09 21:00S 41°15' E 174°02'2 4.8
2019-Jul-09 20:31S 41°17' E 174°00'0 0.0
2019-Jul-09 20:01S 41°17' E 174°00'0 0.0
2019-Jul-09 19:30S 41°17' E 174°00'0 0.0
2019-Jul-09 19:01S 41°17' E 174°00'1 1.7
2019-Jul-09 18:30S 41°16' E 174°01'713.6
2019-Jul-09 18:01S 41°14' E 174°09'611.0
2019-Jul-09 17:30S 41°13' E 174°17'612.0
2019-Jul-09 17:00S 41°15' E 174°24'714.2
2019-Jul-09 16:31S 41°19' E 174°32'714.3
2019-Jul-09 16:00S 41°23' E 174°41'815.2
2019-Jul-09 15:29S 41°20' E 174°51'5 2.9
2019-Jul-09 13:42S 41°16' E 174°47'0 0.0
2019-Jul-09 13:20S 41°16' E 174°47'1 3.2
2019-Jul-09 13:00S 41°16' E 174°49'613.0
2019-Jul-09 12:30S 41°23' E 174°50'815.5
2019-Jul-09 12:00S 41°23' E 174°40'917.2
2019-Jul-09 11:30S 41°19' E 174°30'918.9
2019-Jul-09 11:00S 41°13' E 174°20'612.7
2019-Jul-09 10:30S 41°15' E 174°11'612.4
2019-Jul-09 10:01S 41°15' E 174°03'3 6.0
2019-Jul-09 09:29S 41°17' E 174°00'0 0.0
2019-Jul-09 08:59S 41°17' E 174°00'0 0.0
2019-Jul-09 08:30S 41°17' E 174°00'1 2.8
2019-Jul-09 08:00S 41°16' E 174°01'612.5
2019-Jul-09 07:31S 41°14' E 174°09'713.0
2019-Jul-09 07:00S 41°13' E 174°18'815.2
2019-Jul-09 06:31S 41°17' E 174°27'815.4
2019-Jul-09 06:01S 41°21' E 174°35'713.9
2019-Jul-09 05:30S 41°23' E 174°44'713.8
2019-Jul-09 05:00S 41°18' E 174°51'4 1.2
2019-Jul-09 01:55S 41°16' E 174°47'0 0.0
2019-Jul-09 01:13S 41°16' E 174°47'0 0.0
2019-Jul-09 00:17S 41°16' E 174°47'3 9.7
2019-Jul-09 00:00S 41°17' E 174°51'714.3
2019-Jul-08 23:31S 41°23' E 174°49'815.3
2019-Jul-08 23:00S 41°23' E 174°39'714.7
2019-Jul-08 22:30S 41°19' E 174°31'816.2
2019-Jul-08 22:00S 41°15' E 174°21'611.1
2019-Jul-08 21:31S 41°14' E 174°14'713.0
2019-Jul-08 21:01S 41°14' E 174°05'5 9.4
2019-Jul-08 20:31S 41°17' E 174°00'0 0.0
2019-Jul-08 20:00S 41°17' E 174°00'0 0.0
2019-Jul-08 19:31S 41°17' E 174°00'0 0.0
2019-Jul-08 19:01S 41°17' E 174°00'2 3.3
2019-Jul-08 18:30S 41°16' E 174°01'612.3
2019-Jul-08 18:01S 41°15' E 174°09'612.9
2019-Jul-08 17:30S 41°13' E 174°18'713.8
2019-Jul-08 17:00S 41°16' E 174°26'713.9
2019-Jul-08 16:31S 41°20' E 174°34'611.8
2019-Jul-08 16:00S 41°23' E 174°41'814.5
2019-Jul-08 15:29S 41°21' E 174°51'6 5.9
2019-Jul-08 14:32S 41°16' E 174°47'0 0.0
2019-Jul-08 13:26S 41°16' E 174°47'0 0.0
2019-Jul-08 11:56S 41°16' E 174°47'0 0.0
2019-Jul-08 11:14S 41°16' E 174°47'0 0.0
2019-Jul-08 10:44S 41°16' E 174°47'0 0.1
2019-Jul-08 08:39S 41°16' E 174°47'0 0.0
2019-Jul-08 06:46S 41°16' E 174°47'0 0.0
2019-Jul-08 04:07S 41°16' E 174°47'0 0.0
2019-Jul-08 02:46S 41°16' E 174°47'0 0.0
2019-Jul-08 01:28S 41°16' E 174°47'0 0.0
2019-Jul-08 00:55S 41°16' E 174°47'0 0.0
2019-Jul-08 00:28S 41°16' E 174°47'0 0.0
2019-Jul-07 23:52S 41°16' E 174°47'0 0.0
2019-Jul-07 23:28S 41°16' E 174°47'0 0.0
2019-Jul-07 22:58S 41°16' E 174°47'0 0.0
2019-Jul-07 22:21S 41°16' E 174°47'0 0.0
2019-Jul-07 21:58S 41°16' E 174°47'0 0.0
2019-Jul-07 21:24S 41°16' E 174°47'0 0.0
2019-Jul-07 20:57S 41°16' E 174°47'0 0.0
2019-Jul-07 20:24S 41°16' E 174°47'0 0.0
2019-Jul-07 17:21S 41°16' E 174°47'0 0.0
2019-Jul-07 16:33S 41°16' E 174°47'0 0.0
2019-Jul-07 15:57S 41°16' E 174°47'0 0.0
2019-Jul-07 15:27S 41°16' E 174°47'0 0.0
2019-Jul-07 14:27S 41°16' E 174°47'0 0.0
2019-Jul-07 12:27S 41°16' E 174°47'0 0.0
2019-Jul-07 11:42S 41°16' E 174°47'0 0.0
2019-Jul-07 10:45S 41°16' E 174°47'0 0.0
2019-Jul-07 10:15S 41°16' E 174°47'0 0.0
2019-Jul-07 09:51S 41°16' E 174°47'0 0.0
2019-Jul-07 09:03S 41°16' E 174°47'0 0.0
2019-Jul-07 08:57S 41°16' E 174°47'0 0.0
2019-Jul-07 08:09S 41°16' E 174°47'0 0.0
2019-Jul-07 07:33S 41°16' E 174°47'0 0.0
2019-Jul-07 06:57S 41°16' E 174°47'0 0.0
2019-Jul-07 06:21S 41°16' E 174°47'0 0.0
2019-Jul-07 06:00S 41°16' E 174°47'0 0.0
2019-Jul-07 03:24S 41°16' E 174°47'0 0.0
2019-Jul-07 02:45S 41°16' E 174°47'0 0.0
2019-Jul-07 01:57S 41°16' E 174°47'0 0.0
2019-Jul-07 01:22S 41°16' E 174°47'0 0.0
2019-Jul-07 00:49S 41°16' E 174°47'0 0.0
2019-Jul-06 23:55S 41°16' E 174°47'0 0.0
2019-Jul-06 23:19S 41°16' E 174°47'0 0.0
2019-Jul-06 22:31S 41°16' E 174°47'0 0.0
2019-Jul-06 21:55S 41°16' E 174°47'0 0.0
2019-Jul-06 21:25S 41°16' E 174°47'0 0.0
2019-Jul-06 20:49S 41°16' E 174°47'0 0.0
2019-Jul-06 20:19S 41°16' E 174°47'0 0.0
2019-Jul-06 19:55S 41°16' E 174°47'0 0.0
2019-Jul-06 19:25S 41°16' E 174°47'0 0.0
2019-Jul-06 18:49S 41°16' E 174°47'0 0.0
2019-Jul-06 18:30S 41°16' E 174°47'0 0.3
2019-Jul-06 17:59S 41°16' E 174°47'1 1.0
2019-Jul-06 17:30S 41°16' E 174°48'0 0.6
2019-Jul-06 17:00S 41°16' E 174°48'0 0.4
2019-Jul-06 16:30S 41°16' E 174°48'0 0.4
2019-Jul-06 15:33S 41°16' E 174°47'0 0.0
2019-Jul-06 15:12S 41°16' E 174°47'0 0.0
2019-Jul-06 15:00S 41°16' E 174°47'4 7.4
2019-Jul-06 14:30S 41°18' E 174°51'713.0
2019-Jul-06 14:00S 41°24' E 174°47'816.1
2019-Jul-06 13:30S 41°22' E 174°37'815.0
2019-Jul-06 13:00S 41°18' E 174°28'815.0
2019-Jul-06 12:30S 41°13' E 174°20'713.7
2019-Jul-06 12:00S 41°15' E 174°11'612.6
2019-Jul-06 11:30S 41°15' E 174°03'3 5.3
2019-Jul-06 10:58S 41°17' E 174°00'0 0.0
2019-Jul-06 10:28S 41°17' E 174°00'  

Dump ship's entire track history